Hlavní strana
METAR-TAF:

METAR-TAF

Letiště :

Letiště Brusel

Brusel, Belgie

zeměpisná šířka: 50-54N, zeměpisná délka: 004-32E, výška: 55 m

Aktuální stav počasí

Zpráva byla vytvořena před 19 minutami, v 01:20 UTC
Jihojihovýchodní vítr 2 kt
Teplota 6°C
Vlhkost vzduchu 61%
Tlak 1022 hPa
Viditelnost 10 km a více
Žádná oblačnost pod 1500 m, nevyskytují se cumulonimby.

METAR: EBBR 040120Z 15002KT CAVOK 06/M01 Q1022 NOSIG

Čas: 03:39 (01:39 UTC)

Předpověď počasí

Zpráva byla vytvořena před 2 hodinami a 29 minutami, v 23:10 UTC
Předpověď platná od 04 v 00 UTC do 05 v 06 UTC
Jihojihovýchodní vítr 4 kt
Viditelnost 10 km a více
Žádná oblačnost pod 1500 m, nevyskytují se cumulonimby.
Pravděpodobnost 30% :
Dočasný
od 04 v 04 UTC do 04 v 07 UTC
Viditelnost: 4000 m
kouřmo

TAF: EBBR 032310Z 0400/0506 15004KT CAVOK PROB30 TEMPO 0404/0407 4000 BR

Stav a předpovědi počasí z více než 4 000 letišť (zprávy METAR a TAF).

Červené a žluté tečky na mapě představují dostupné meteorologické stanice.

Když kurzor umístíte na tečku, zobrazí se název stanice.

Pak kliknutím zobrazíte stav a předpověď počasí.

Chcete-li změnit mapu, kliknutím na zelené tlačítko se znaménkem +mapu přiblížíte, kliknutím na zelené tlačítko se znaménkem – mapu oddálíte a kliknutím na zelené šipky přejdete na sousední mapy.


METAR-TAF: